createdAt,value
2019-03-24T00:00:21.544Z,9.38
2019-03-24T00:01:21.530Z,9.42
2019-03-24T00:02:21.506Z,9.38
2019-03-24T00:03:21.495Z,9.36
2019-03-24T00:04:21.468Z,9.38
2019-03-24T00:05:21.449Z,9.39
2019-03-24T00:06:21.434Z,9.40
2019-03-24T00:07:21.406Z,9.38
2019-03-24T00:08:21.391Z,9.31
2019-03-24T00:09:21.367Z,9.26
2019-03-24T00:10:21.353Z,9.20
2019-03-24T00:11:21.333Z,9.21
2019-03-24T00:12:21.315Z,9.24
2019-03-24T00:13:21.294Z,9.17
2019-03-24T00:14:21.274Z,9.20
2019-03-24T00:15:26.333Z,9.21
2019-03-24T00:16:21.235Z,9.20
2019-03-24T00:17:21.215Z,9.17
2019-03-24T00:18:21.200Z,9.13
2019-03-24T00:19:21.178Z,9.13
2019-03-24T00:20:21.160Z,9.10
2019-03-24T00:21:21.151Z,9.10
2019-03-24T00:22:21.121Z,9.05
2019-03-24T00:23:21.096Z,9.02
2019-03-24T00:24:21.081Z,9.05
2019-03-24T00:25:21.065Z,8.99
2019-03-24T00:26:23.400Z,9.01
2019-03-24T00:27:21.022Z,8.91
2019-03-24T00:28:21.001Z,8.92
2019-03-24T00:29:20.984Z,8.92
2019-03-24T00:30:20.966Z,9.05
2019-03-24T00:31:20.945Z,8.87
2019-03-24T00:32:20.922Z,8.89
2019-03-24T00:33:20.914Z,8.94
2019-03-24T00:34:20.893Z,8.94
2019-03-24T00:35:20.871Z,8.96
2019-03-24T00:36:20.856Z,8.96
2019-03-24T00:37:20.835Z,8.86
2019-03-24T00:38:20.810Z,8.83
2019-03-24T00:39:20.790Z,8.83
2019-03-24T00:40:20.772Z,8.81
2019-03-24T00:41:20.751Z,8.84
2019-03-24T00:42:20.734Z,8.77
2019-03-24T00:43:20.714Z,8.83
2019-03-24T00:44:20.693Z,8.79
2019-03-24T00:45:20.671Z,8.80
2019-03-24T00:46:20.655Z,8.81
2019-03-24T00:47:20.635Z,8.73
2019-03-24T00:48:20.612Z,8.71
2019-03-24T00:49:20.591Z,8.71
2019-03-24T00:50:20.583Z,8.61
2019-03-24T00:51:20.559Z,8.74
2019-03-24T00:52:20.535Z,8.66
2019-03-24T00:53:20.515Z,8.53
2019-03-24T00:54:20.495Z,8.53
2019-03-24T00:55:20.477Z,8.52
2019-03-24T00:56:20.455Z,8.48
2019-03-24T00:57:20.438Z,8.55
2019-03-24T00:58:20.417Z,8.48
2019-03-24T00:59:20.399Z,8.38
2019-03-24T01:00:20.381Z,8.37
2019-03-24T01:01:20.361Z,8.41
2019-03-24T01:02:20.337Z,8.36
2019-03-24T01:03:20.327Z,8.37
2019-03-24T01:04:20.297Z,8.25
2019-03-24T01:05:20.282Z,8.23
2019-03-24T01:06:20.259Z,8.30
2019-03-24T01:07:20.239Z,8.20
2019-03-24T01:08:20.219Z,8.16
2019-03-24T01:09:20.202Z,8.25
2019-03-24T01:10:20.180Z,8.23
2019-03-24T01:11:20.163Z,8.16
2019-03-24T01:12:20.141Z,8.11
2019-03-24T01:13:20.120Z,8.16
2019-03-24T01:14:20.099Z,8.15
2019-03-24T01:15:20.086Z,8.10
2019-03-24T01:16:20.063Z,8.10
2019-03-24T01:17:20.044Z,8.04
2019-03-24T01:18:20.024Z,8.02
2019-03-24T01:19:20.003Z,8.02
2019-03-24T01:20:19.982Z,8.05
2019-03-24T01:21:19.962Z,8.01
2019-03-24T01:22:19.938Z,7.98
2019-03-24T01:23:19.922Z,7.89
2019-03-24T01:24:19.901Z,7.95
2019-03-24T01:25:19.884Z,7.87
2019-03-24T01:26:19.864Z,7.85
2019-03-24T01:27:19.843Z,7.90
2019-03-24T01:28:19.821Z,7.86
2019-03-24T01:29:19.801Z,7.83
2019-03-24T01:30:19.784Z,7.82
2019-03-24T01:31:19.765Z,7.85
2019-03-24T01:32:19.739Z,7.79
2019-03-24T01:33:19.722Z,7.79
2019-03-24T01:34:19.704Z,7.71
2019-03-24T01:35:19.684Z,7.74
2019-03-24T01:36:19.662Z,7.74
2019-03-24T01:37:19.643Z,7.69
2019-03-24T01:38:19.621Z,7.74
2019-03-24T01:39:19.603Z,7.69
2019-03-24T01:40:19.581Z,7.69
2019-03-24T01:41:19.557Z,7.64
2019-03-24T01:42:19.539Z,7.58
2019-03-24T01:43:19.520Z,7.60
2019-03-24T01:44:19.496Z,7.67
2019-03-24T01:45:19.483Z,7.55
2019-03-24T01:46:19.463Z,7.58
2019-03-24T01:47:19.436Z,7.52
2019-03-24T01:48:19.423Z,7.57
2019-03-24T01:49:19.398Z,7.52
2019-03-24T01:50:19.374Z,7.49
2019-03-24T01:51:19.357Z,7.55
2019-03-24T01:52:19.336Z,7.50
2019-03-24T01:53:19.314Z,7.52
2019-03-24T01:54:19.298Z,7.50
2019-03-24T01:55:19.282Z,7.52
2019-03-24T01:56:19.259Z,7.57
2019-03-24T01:57:19.232Z,7.55
2019-03-24T01:58:19.213Z,7.50
2019-03-24T01:59:19.197Z,7.52
2019-03-24T02:00:19.174Z,7.60
2019-03-24T02:01:19.156Z,7.46
2019-03-24T02:02:19.132Z,7.49
2019-03-24T02:03:19.116Z,7.45
2019-03-24T02:04:19.099Z,7.50
2019-03-24T02:05:19.072Z,7.45
2019-03-24T02:06:19.052Z,7.50
2019-03-24T02:07:19.032Z,7.50
2019-03-24T02:08:19.008Z,7.43
2019-03-24T02:09:18.990Z,7.50
2019-03-24T02:10:18.968Z,7.53
2019-03-24T02:11:18.948Z,7.37
2019-03-24T02:12:18.929Z,7.40
2019-03-24T02:13:18.908Z,7.43
2019-03-24T02:14:18.888Z,7.35
2019-03-24T02:15:18.870Z,7.37
2019-03-24T02:16:18.847Z,7.34
2019-03-24T02:17:18.822Z,7.27
2019-03-24T02:18:18.810Z,7.23
2019-03-24T02:19:18.782Z,7.21
2019-03-24T02:20:18.767Z,7.30
2019-03-24T02:21:18.744Z,7.23
2019-03-24T02:22:18.723Z,7.21
2019-03-24T02:23:18.701Z,7.20
2019-03-24T02:24:18.688Z,7.16
2019-03-24T02:25:18.665Z,7.12
2019-03-24T02:26:18.638Z,7.10
2019-03-24T02:27:18.624Z,7.05
2019-03-24T02:28:18.598Z,6.98
2019-03-24T02:29:18.580Z,7.02
2019-03-24T02:30:18.556Z,6.98
2019-03-24T02:31:18.546Z,6.94
2019-03-24T02:32:18.516Z,6.89
2019-03-24T02:33:18.490Z,6.85
2019-03-24T02:34:18.473Z,6.88
2019-03-24T02:35:18.452Z,6.89
2019-03-24T02:36:18.440Z,6.87
2019-03-24T02:37:18.422Z,6.85
2019-03-24T02:38:18.398Z,6.70
2019-03-24T02:39:18.377Z,6.71
2019-03-24T02:40:18.363Z,6.73
2019-03-24T02:41:18.332Z,6.70
2019-03-24T02:42:18.311Z,6.74
2019-03-24T02:43:18.289Z,6.74
2019-03-24T02:44:18.269Z,6.81
2019-03-24T02:45:18.250Z,6.74
2019-03-24T02:46:24.077Z,6.74
2019-03-24T02:47:18.211Z,6.76
2019-03-24T02:48:18.185Z,6.59
2019-03-24T02:49:18.165Z,6.71
2019-03-24T02:50:18.146Z,6.52
2019-03-24T02:51:18.122Z,6.49
2019-03-24T02:52:18.102Z,6.51
2019-03-24T02:53:18.114Z,6.52
2019-03-24T02:54:18.062Z,6.46
2019-03-24T02:55:18.047Z,6.37
2019-03-24T02:56:18.048Z,6.44
2019-03-24T02:57:18.003Z,6.25
2019-03-24T02:58:17.977Z,6.19
2019-03-24T02:59:17.959Z,6.18
2019-03-24T03:00:17.934Z,6.14
2019-03-24T03:01:17.927Z,6.15
2019-03-24T03:02:17.889Z,6.11
2019-03-24T03:03:17.875Z,6.06
2019-03-24T03:04:17.861Z,6.09
2019-03-24T03:05:17.834Z,6.06
2019-03-24T03:06:17.807Z,6.08
2019-03-24T03:07:17.785Z,6.06
2019-03-24T03:08:17.786Z,6.03
2019-03-24T03:09:17.751Z,6.01
2019-03-24T03:10:17.736Z,6.04
2019-03-24T03:11:17.710Z,5.99
2019-03-24T03:12:17.692Z,5.90
2019-03-24T03:13:17.663Z,5.90
2019-03-24T03:14:17.640Z,5.81
2019-03-24T03:15:17.624Z,5.93
2019-03-24T03:16:17.596Z,5.78
2019-03-24T03:17:17.578Z,5.82
2019-03-24T03:18:17.558Z,5.86
2019-03-24T03:19:17.537Z,5.89
2019-03-24T03:20:17.516Z,5.82
2019-03-24T03:21:17.498Z,5.94
2019-03-24T03:22:17.476Z,5.85
2019-03-24T03:23:17.451Z,5.81
2019-03-24T03:24:17.434Z,5.82
2019-03-24T03:25:17.415Z,5.81
2019-03-24T03:26:17.389Z,5.78
2019-03-24T03:27:17.368Z,5.78
2019-03-24T03:28:17.344Z,5.79
2019-03-24T03:29:17.334Z,5.67
2019-03-24T03:30:17.302Z,5.64
2019-03-24T03:31:17.284Z,5.67
2019-03-24T03:32:17.260Z,5.60
2019-03-24T03:33:17.257Z,5.60
2019-03-24T03:34:17.232Z,5.57
2019-03-24T03:35:17.211Z,5.57
2019-03-24T03:36:17.174Z,5.54
2019-03-24T03:37:17.159Z,5.49
2019-03-24T03:38:17.145Z,5.53
2019-03-24T03:39:17.120Z,5.45
2019-03-24T03:40:17.109Z,5.35
2019-03-24T03:41:17.072Z,5.40
2019-03-24T03:42:17.056Z,5.43
2019-03-24T03:43:17.026Z,5.31
2019-03-24T03:44:17.016Z,5.39
2019-03-24T03:45:16.986Z,5.33
2019-03-24T03:46:16.973Z,5.35
2019-03-24T03:47:16.938Z,5.35
2019-03-24T03:48:16.941Z,5.25
2019-03-24T03:49:16.901Z,5.24
2019-03-24T03:50:16.880Z,5.18
2019-03-24T03:51:16.856Z,5.17
2019-03-24T03:52:16.841Z,5.17
2019-03-24T03:53:16.819Z,5.24
2019-03-24T03:54:16.791Z,5.24
2019-03-24T03:55:16.777Z,5.13
2019-03-24T03:56:16.751Z,5.21
2019-03-24T03:57:16.728Z,5.20
2019-03-24T03:58:16.708Z,5.15
2019-03-24T03:59:16.686Z,5.13
2019-03-24T04:00:16.678Z,5.17
2019-03-24T04:01:16.641Z,5.18
2019-03-24T04:02:16.662Z,5.07
2019-03-24T04:03:16.601Z,5.09
2019-03-24T04:04:16.579Z,5.06
2019-03-24T04:05:19.190Z,4.99
2019-03-24T04:06:16.534Z,4.97
2019-03-24T04:07:16.574Z,4.92
2019-03-24T04:08:16.488Z,5.04
2019-03-24T04:09:16.471Z,4.84
2019-03-24T04:10:16.443Z,4.89
2019-03-24T04:11:16.432Z,4.85
2019-03-24T04:12:16.408Z,4.92
2019-03-24T04:13:16.385Z,4.85
2019-03-24T04:14:16.361Z,4.84
2019-03-24T04:15:16.340Z,4.82
2019-03-24T04:16:16.317Z,4.80
2019-03-24T04:17:16.301Z,4.80
2019-03-24T04:18:16.279Z,4.77
2019-03-24T04:19:16.254Z,4.66
2019-03-24T04:20:16.232Z,4.66
2019-03-24T04:21:16.209Z,4.70
2019-03-24T04:22:16.190Z,4.73
2019-03-24T04:23:16.167Z,4.67
2019-03-24T04:24:16.142Z,4.58
2019-03-24T04:25:16.124Z,4.63
2019-03-24T04:26:16.109Z,4.66
2019-03-24T04:27:16.081Z,4.62
2019-03-24T04:28:16.058Z,4.62
2019-03-24T04:29:16.041Z,4.62
2019-03-24T04:30:16.014Z,4.52
2019-03-24T04:31:16.002Z,4.59
2019-03-24T04:32:15.969Z,4.59
2019-03-24T04:33:15.950Z,4.55
2019-03-24T04:34:15.931Z,4.58
2019-03-24T04:35:15.910Z,4.62
2019-03-24T04:36:15.884Z,4.51
2019-03-24T04:37:15.872Z,4.58
2019-03-24T04:38:15.838Z,4.62
2019-03-24T04:39:15.820Z,4.60
2019-03-24T04:40:15.797Z,4.63
2019-03-24T04:41:15.784Z,4.50
2019-03-24T04:42:15.754Z,4.47
2019-03-24T04:43:15.732Z,4.51
2019-03-24T04:44:15.708Z,4.47
2019-03-24T04:45:15.689Z,4.45
2019-03-24T04:46:15.663Z,4.59
2019-03-24T04:47:16.757Z,4.55
2019-03-24T04:48:15.622Z,4.55
2019-03-24T04:49:15.599Z,4.52
2019-03-24T04:50:15.580Z,4.51
2019-03-24T04:51:15.561Z,4.44
2019-03-24T04:52:15.533Z,4.47
2019-03-24T04:53:15.512Z,4.44
2019-03-24T04:54:15.488Z,4.36
2019-03-24T04:55:15.468Z,4.34
2019-03-24T04:56:15.447Z,4.33
2019-03-24T04:57:15.431Z,4.29
2019-03-24T04:58:15.401Z,4.27
2019-03-24T04:59:15.382Z,4.23
2019-03-24T05:00:15.360Z,4.23
2019-03-24T05:01:15.370Z,4.22
2019-03-24T05:02:15.321Z,4.23
2019-03-24T05:03:15.298Z,4.14
2019-03-24T05:04:15.273Z,4.06
2019-03-24T05:05:15.256Z,4.14
2019-03-24T05:06:15.230Z,4.08
2019-03-24T05:07:15.207Z,4.11
2019-03-24T05:08:15.189Z,4.08
2019-03-24T05:09:15.163Z,4.06
2019-03-24T05:10:15.138Z,4.05
2019-03-24T05:11:15.121Z,4.09
2019-03-24T05:12:15.101Z,4.05
2019-03-24T05:13:15.080Z,4.06
2019-03-24T05:14:15.055Z,4.06
2019-03-24T05:15:15.032Z,4.04
2019-03-24T05:16:15.016Z,3.98
2019-03-24T05:17:14.987Z,3.98
2019-03-24T05:18:14.965Z,3.96
2019-03-24T05:19:14.940Z,4.05
2019-03-24T05:20:14.928Z,3.93
2019-03-24T05:21:14.903Z,3.97
2019-03-24T05:22:14.876Z,3.94
2019-03-24T05:23:14.853Z,4.11
2019-03-24T05:24:14.837Z,4.05
2019-03-24T05:25:14.807Z,4.12
2019-03-24T05:26:14.787Z,4.09
2019-03-24T05:27:14.774Z,4.15
2019-03-24T05:28:14.745Z,4.20
2019-03-24T05:29:14.724Z,4.32
2019-03-24T05:30:14.706Z,4.27
2019-03-24T05:31:14.681Z,4.27
2019-03-24T05:32:14.655Z,4.32
2019-03-24T05:33:14.632Z,4.29
2019-03-24T05:34:14.612Z,4.40
2019-03-24T05:35:14.606Z,4.47
2019-03-24T05:36:14.580Z,4.55
2019-03-24T05:37:14.550Z,4.60
2019-03-24T05:38:14.528Z,4.66
2019-03-24T05:39:14.504Z,4.60
2019-03-24T05:40:14.479Z,4.80
2019-03-24T05:41:14.467Z,4.77
2019-03-24T05:42:14.435Z,4.69
2019-03-24T05:43:14.411Z,4.70
2019-03-24T05:44:14.395Z,4.66
2019-03-24T05:45:14.369Z,4.70
2019-03-24T05:46:14.354Z,4.63
2019-03-24T05:47:14.332Z,4.58
2019-03-24T05:48:14.303Z,4.52
2019-03-24T05:49:14.285Z,4.58
2019-03-24T05:50:14.261Z,4.52
2019-03-24T05:51:14.242Z,4.52
2019-03-24T05:52:14.214Z,4.67
2019-03-24T05:53:14.191Z,4.63
2019-03-24T05:54:14.170Z,4.63
2019-03-24T05:55:14.152Z,4.73
2019-03-24T05:56:14.136Z,4.72
2019-03-24T05:57:14.111Z,4.82
2019-03-24T05:58:14.085Z,4.82
2019-03-24T05:59:14.064Z,4.88
2019-03-24T06:00:14.046Z,4.86
2019-03-24T06:01:14.022Z,4.92
2019-03-24T06:02:13.997Z,4.96
2019-03-24T06:03:13.984Z,4.97
2019-03-24T06:04:13.953Z,5.06
2019-03-24T06:05:13.935Z,4.99
2019-03-24T06:06:13.903Z,4.97
2019-03-24T06:07:13.885Z,5.09
2019-03-24T06:08:13.865Z,5.07
2019-03-24T06:09:13.843Z,5.07
2019-03-24T06:10:13.823Z,5.20
2019-03-24T06:11:13.799Z,5.22
2019-03-24T06:12:13.777Z,5.18
2019-03-24T06:13:13.759Z,5.24
2019-03-24T06:14:13.736Z,5.33
2019-03-24T06:15:13.715Z,5.40
2019-03-24T06:16:13.690Z,5.39
2019-03-24T06:17:13.673Z,5.45
2019-03-24T06:18:13.651Z,5.60
2019-03-24T06:19:13.629Z,5.65
2019-03-24T06:20:13.603Z,5.79
2019-03-24T06:21:13.581Z,5.86
2019-03-24T06:22:13.561Z,5.90
2019-03-24T06:23:13.536Z,6.06
2019-03-24T06:24:13.517Z,6.14
2019-03-24T06:25:13.499Z,6.19
2019-03-24T06:26:13.474Z,6.38
2019-03-24T06:27:13.452Z,6.38
2019-03-24T06:28:13.429Z,6.54
2019-03-24T06:29:13.406Z,6.62
2019-03-24T06:30:13.385Z,6.69
2019-03-24T06:31:13.365Z,6.74
2019-03-24T06:32:13.346Z,6.84
2019-03-24T06:33:13.321Z,6.91
2019-03-24T06:34:13.299Z,6.97
2019-03-24T06:35:13.285Z,7.10
2019-03-24T06:36:13.257Z,7.07
2019-03-24T06:37:13.238Z,7.17
2019-03-24T06:38:13.212Z,7.27
2019-03-24T06:39:13.196Z,7.40
2019-03-24T06:40:13.174Z,7.53
2019-03-24T06:41:13.151Z,7.45
2019-03-24T06:42:13.130Z,7.55
2019-03-24T06:43:13.107Z,7.71
2019-03-24T06:44:13.094Z,7.79
2019-03-24T06:45:13.064Z,7.93
2019-03-24T06:46:15.002Z,7.98
2019-03-24T06:47:13.021Z,8.01
2019-03-24T06:48:13.003Z,8.11
2019-03-24T06:49:12.984Z,8.26
2019-03-24T06:50:12.954Z,8.30
2019-03-24T06:51:12.937Z,8.40
2019-03-24T06:52:12.966Z,8.37
2019-03-24T06:53:12.895Z,8.55
2019-03-24T06:54:12.875Z,8.66
2019-03-24T06:55:12.858Z,8.74
2019-03-24T06:56:12.829Z,8.87
2019-03-24T06:57:12.814Z,8.84
2019-03-24T06:58:12.792Z,8.99
2019-03-24T06:59:12.774Z,9.17
2019-03-24T07:00:12.750Z,9.15
2019-03-24T07:01:12.730Z,9.17
2019-03-24T07:02:12.711Z,9.21
2019-03-24T07:03:12.691Z,9.35
2019-03-24T07:04:12.668Z,9.40
2019-03-24T07:05:12.644Z,9.40
2019-03-24T07:06:12.629Z,9.39
2019-03-24T07:07:12.606Z,9.38
2019-03-24T07:08:12.586Z,9.36
2019-03-24T07:09:12.567Z,9.56
2019-03-24T07:10:12.548Z,9.56
2019-03-24T07:11:13.907Z,9.40
2019-03-24T07:12:12.509Z,9.36
2019-03-24T07:13:12.488Z,9.40
2019-03-24T07:14:12.464Z,9.40
2019-03-24T07:15:12.447Z,9.32
2019-03-24T07:16:12.433Z,9.42
2019-03-24T07:17:12.405Z,9.42
2019-03-24T07:18:12.388Z,9.28
2019-03-24T07:19:12.372Z,9.28
2019-03-24T07:20:12.345Z,9.23
2019-03-24T07:21:12.324Z,9.17
2019-03-24T07:22:12.306Z,9.15
2019-03-24T07:23:12.290Z,9.15
2019-03-24T07:24:12.266Z,9.11
2019-03-24T07:25:12.251Z,9.13
2019-03-24T07:26:12.227Z,9.14
2019-03-24T07:27:12.211Z,9.13
2019-03-24T07:28:12.189Z,9.17
2019-03-24T07:29:12.166Z,9.21
2019-03-24T07:30:12.145Z,9.20
2019-03-24T07:31:12.127Z,9.24
2019-03-24T07:32:12.162Z,9.32
2019-03-24T07:33:12.092Z,9.39
2019-03-24T07:34:12.068Z,9.40
2019-03-24T07:35:12.050Z,9.58
2019-03-24T07:36:12.032Z,9.61
2019-03-24T07:37:12.008Z,9.74
2019-03-24T07:38:11.988Z,9.74
2019-03-24T07:39:11.970Z,9.78
2019-03-24T07:40:11.954Z,9.75
2019-03-24T07:41:11.935Z,9.90
2019-03-24T07:42:11.913Z,9.83
2019-03-24T07:43:11.900Z,9.89
2019-03-24T07:44:11.874Z,9.89
2019-03-24T07:45:11.857Z,10.01
2019-03-24T07:46:11.835Z,10.04
2019-03-24T07:47:11.817Z,10.12
2019-03-24T07:48:18.967Z,10.22
2019-03-24T07:49:11.777Z,10.23
2019-03-24T07:50:11.756Z,10.25
2019-03-24T07:51:11.740Z,10.38
2019-03-24T07:52:11.719Z,10.55
2019-03-24T07:53:11.702Z,10.63
2019-03-24T07:54:11.681Z,10.73
2019-03-24T07:55:11.668Z,10.70
2019-03-24T07:56:11.644Z,10.73
2019-03-24T07:57:11.625Z,10.86
2019-03-24T07:58:11.608Z,11.03
2019-03-24T07:59:11.586Z,11.25
2019-03-24T08:00:11.587Z,11.33
2019-03-24T08:01:11.554Z,11.46
2019-03-24T08:02:11.535Z,11.61
2019-03-24T08:03:11.516Z,11.73
2019-03-24T08:04:11.495Z,11.86
2019-03-24T08:05:11.484Z,11.99
2019-03-24T08:06:11.457Z,12.07
2019-03-24T08:07:11.438Z,12.02
2019-03-24T08:08:11.423Z,12.10
2019-03-24T08:09:11.401Z,12.09
2019-03-24T08:10:11.389Z,12.05
2019-03-24T08:11:11.367Z,12.20
2019-03-24T08:12:11.347Z,12.37
2019-03-24T08:13:11.334Z,12.59
2019-03-24T08:14:11.312Z,12.74
2019-03-24T08:15:11.295Z,12.93
2019-03-24T08:16:11.275Z,13.25
2019-03-24T08:17:11.257Z,13.57
2019-03-24T08:18:11.298Z,13.55
2019-03-24T08:19:13.840Z,13.66
2019-03-24T08:20:12.288Z,13.57
2019-03-24T08:21:11.183Z,13.55
2019-03-24T08:22:11.171Z,13.57
2019-03-24T08:23:11.153Z,13.75
2019-03-24T08:24:11.132Z,13.70
2019-03-24T08:25:11.123Z,13.79
2019-03-24T08:26:11.101Z,13.63
2019-03-24T08:27:11.087Z,13.39
2019-03-24T08:28:11.069Z,13.28
2019-03-24T08:29:11.048Z,13.17
2019-03-24T08:30:11.032Z,13.14
2019-03-24T08:31:11.029Z,13.23
2019-03-24T08:32:11.002Z,13.41
2019-03-24T08:33:10.982Z,13.63
2019-03-24T08:34:10.972Z,13.88
2019-03-24T08:35:11.007Z,14.12
2019-03-24T08:36:10.933Z,14.37
2019-03-24T08:37:10.915Z,14.43
2019-03-24T08:38:10.897Z,14.64
2019-03-24T08:39:10.882Z,14.73
2019-03-24T08:40:10.871Z,14.73
2019-03-24T08:41:10.849Z,14.73
2019-03-24T08:42:10.834Z,14.58
2019-03-24T08:43:10.825Z,14.54
2019-03-24T08:44:10.801Z,14.24
2019-03-24T08:45:10.781Z,14.21
2019-03-24T08:46:10.769Z,13.88
2019-03-24T08:47:10.815Z,13.84
2019-03-24T08:48:10.739Z,13.78
2019-03-24T08:49:10.721Z,13.88
2019-03-24T08:50:10.715Z,13.88
2019-03-24T08:51:10.691Z,13.88
2019-03-24T08:52:10.686Z,13.79
2019-03-24T08:53:10.660Z,13.84
2019-03-24T08:54:10.652Z,14.15
2019-03-24T08:55:10.628Z,14.20
2019-03-24T08:56:10.614Z,14.18
2019-03-24T08:57:10.604Z,14.25
2019-03-24T08:58:10.585Z,14.27
2019-03-24T08:59:10.569Z,14.09
2019-03-24T09:00:10.555Z,13.95
2019-03-24T09:01:10.539Z,13.82
2019-03-24T09:02:10.528Z,13.71
2019-03-24T09:03:10.504Z,13.63
2019-03-24T09:04:10.500Z,13.69
2019-03-24T09:05:10.480Z,13.82
2019-03-24T09:06:10.465Z,13.78
2019-03-24T09:07:10.446Z,13.91
2019-03-24T09:08:10.432Z,14.02
2019-03-24T09:09:10.415Z,14.35
2019-03-24T09:10:10.399Z,14.70
2019-03-24T09:11:10.388Z,14.75
2019-03-24T09:12:10.375Z,14.88
2019-03-24T09:13:10.355Z,14.72
2019-03-24T09:14:10.342Z,14.50
2019-03-24T09:15:10.331Z,14.04
2019-03-24T09:16:10.310Z,13.70
2019-03-24T09:17:10.299Z,13.57
2019-03-24T09:18:10.285Z,13.30
2019-03-24T09:19:10.275Z,13.08
2019-03-24T09:20:10.260Z,13.17
2019-03-24T09:21:10.248Z,13.30
2019-03-24T09:22:10.232Z,13.42
2019-03-24T09:23:10.713Z,13.44
2019-03-24T09:24:10.194Z,13.48
2019-03-24T09:25:10.193Z,13.52
2019-03-24T09:26:10.175Z,13.55
2019-03-24T09:27:10.149Z,13.70
2019-03-24T09:28:10.140Z,13.79
2019-03-24T09:29:10.126Z,13.97
2019-03-24T09:30:10.110Z,14.17
2019-03-24T09:31:10.096Z,14.21
2019-03-24T09:32:10.081Z,14.10
2019-03-24T09:33:10.067Z,14.17
2019-03-24T09:34:10.055Z,14.18
2019-03-24T09:35:10.042Z,14.24
2019-03-24T09:36:10.025Z,14.22
2019-03-24T09:37:10.012Z,14.24
2019-03-24T09:38:10.001Z,14.37
2019-03-24T09:39:09.976Z,14.77
2019-03-24T09:40:09.966Z,14.69
2019-03-24T09:41:09.949Z,14.70
2019-03-24T09:42:09.936Z,14.73
2019-03-24T09:43:09.918Z,14.83
2019-03-24T09:44:09.914Z,15.03
2019-03-24T09:45:09.903Z,15.14
2019-03-24T09:46:09.881Z,15.25
2019-03-24T09:47:09.873Z,15.29
2019-03-24T09:48:09.850Z,15.41
2019-03-24T09:49:09.835Z,15.46
2019-03-24T09:50:09.820Z,15.60
2019-03-24T09:51:09.809Z,15.78
2019-03-24T09:52:09.792Z,15.92
2019-03-24T09:53:09.778Z,16.09
2019-03-24T09:54:09.766Z,15.82
2019-03-24T09:55:09.748Z,15.93
2019-03-24T09:56:09.735Z,15.96
2019-03-24T09:57:09.721Z,15.97
2019-03-24T09:58:09.706Z,16.12
2019-03-24T09:59:09.692Z,16.04
2019-03-24T10:00:09.680Z,15.92
2019-03-24T10:01:09.664Z,15.94
2019-03-24T10:02:09.659Z,15.97
2019-03-24T10:03:09.633Z,15.84
2019-03-24T10:04:09.616Z,15.96
2019-03-24T10:05:09.621Z,16.20
2019-03-24T10:06:09.593Z,16.28
2019-03-24T10:07:09.579Z,16.21
2019-03-24T10:08:09.565Z,16.35
2019-03-24T10:09:09.553Z,16.42
2019-03-24T10:10:09.538Z,16.25
2019-03-24T10:11:09.524Z,16.38
2019-03-24T10:12:09.512Z,16.20
2019-03-24T10:13:09.501Z,16.05
2019-03-24T10:14:09.489Z,16.17
2019-03-24T10:15:09.469Z,16.46
2019-03-24T10:16:09.457Z,16.64
2019-03-24T10:17:09.453Z,16.94
2019-03-24T10:18:09.436Z,17.15
2019-03-24T10:19:13.937Z,17.36
2019-03-24T10:20:09.406Z,17.21
2019-03-24T10:21:09.393Z,17.12
2019-03-24T10:22:09.384Z,16.89
2019-03-24T10:23:09.366Z,16.82
2019-03-24T10:24:09.362Z,16.76
2019-03-24T10:25:09.345Z,17.00
2019-03-24T10:26:09.329Z,17.15
2019-03-24T10:27:09.315Z,17.16
2019-03-24T10:28:09.308Z,17.23
2019-03-24T10:29:09.297Z,17.36
2019-03-24T10:30:09.280Z,17.48
2019-03-24T10:31:09.273Z,17.31
2019-03-24T10:32:09.272Z,17.33
2019-03-24T10:33:09.251Z,16.98
2019-03-24T10:34:09.238Z,16.93
2019-03-24T10:35:09.223Z,17.22
2019-03-24T10:36:09.216Z,17.37
2019-03-24T10:37:09.210Z,17.21
2019-03-24T10:38:09.194Z,17.25
2019-03-24T10:39:09.182Z,17.34
2019-03-24T10:40:09.172Z,17.25
2019-03-24T10:41:09.157Z,17.34
2019-03-24T10:42:09.149Z,17.23
2019-03-24T10:43:09.140Z,17.34
2019-03-24T10:44:09.129Z,17.36
2019-03-24T10:45:09.117Z,17.41
2019-03-24T10:46:09.108Z,17.55
2019-03-24T10:47:09.095Z,17.71
2019-03-24T10:48:09.087Z,17.95
2019-03-24T10:49:09.081Z,18.14
2019-03-24T10:50:09.068Z,18.15
2019-03-24T10:51:09.057Z,18.36
2019-03-24T10:52:09.045Z,18.39
2019-03-24T10:53:09.037Z,18.42
2019-03-24T10:54:09.026Z,18.26
2019-03-24T10:55:09.017Z,18.78
2019-03-24T10:56:09.011Z,18.62
2019-03-24T10:57:09.003Z,18.92
2019-03-24T10:58:08.994Z,19.06
2019-03-24T10:59:08.985Z,18.94
2019-03-24T11:00:08.971Z,18.55
2019-03-24T11:01:08.963Z,18.30
2019-03-24T11:02:08.955Z,18.26
2019-03-24T11:03:08.950Z,18.30
2019-03-24T11:04:08.945Z,18.92
2019-03-24T11:05:08.939Z,19.04
2019-03-24T11:06:08.921Z,19.16
2019-03-24T11:07:08.921Z,19.44
2019-03-24T11:08:09.230Z,20.10
2019-03-24T11:09:08.904Z,20.38
2019-03-24T11:10:08.889Z,20.66
2019-03-24T11:11:08.893Z,20.97
2019-03-24T11:12:08.886Z,21.58
2019-03-24T11:13:08.865Z,21.90
2019-03-24T11:14:08.861Z,22.47
2019-03-24T11:15:08.852Z,22.98
2019-03-24T11:16:08.846Z,23.39
2019-03-24T11:17:08.838Z,23.48
2019-03-24T11:18:08.831Z,23.39
2019-03-24T11:19:08.821Z,23.38
2019-03-24T11:20:08.819Z,23.46
2019-03-24T11:21:09.006Z,23.80
2019-03-24T11:22:08.811Z,24.08
2019-03-24T11:23:08.802Z,24.31
2019-03-24T11:24:08.797Z,24.28
2019-03-24T11:25:08.794Z,24.39
2019-03-24T11:26:08.783Z,24.08
2019-03-24T11:27:08.791Z,23.40
2019-03-24T11:28:08.776Z,23.17
2019-03-24T11:29:08.770Z,23.46
2019-03-24T11:30:08.764Z,23.43
2019-03-24T11:31:08.763Z,22.73
2019-03-24T11:32:08.753Z,21.91
2019-03-24T11:33:08.753Z,21.31
2019-03-24T11:34:08.747Z,20.70
2019-03-24T11:35:08.750Z,20.24
2019-03-24T11:36:08.741Z,19.69
2019-03-24T11:37:08.738Z,19.40
2019-03-24T11:38:08.724Z,19.02
2019-03-24T11:39:08.735Z,18.73
2019-03-24T11:40:08.713Z,18.60
2019-03-24T11:41:08.715Z,18.50
2019-03-24T11:42:08.711Z,18.85
2019-03-24T11:43:08.698Z,19.07
2019-03-24T11:44:08.696Z,19.43
2019-03-24T11:45:08.688Z,19.80
2019-03-24T11:46:08.686Z,20.36
2019-03-24T11:47:08.680Z,20.99
2019-03-24T11:48:08.672Z,21.12
2019-03-24T11:49:08.667Z,21.28
2019-03-24T11:50:08.661Z,21.14
2019-03-24T11:51:08.654Z,21.31
2019-03-24T11:52:08.654Z,21.56
2019-03-24T11:53:08.646Z,21.83
2019-03-24T11:54:08.689Z,21.72
2019-03-24T11:55:08.633Z,21.64
2019-03-24T11:56:08.630Z,22.10
2019-03-24T11:57:08.622Z,22.31
2019-03-24T11:58:08.629Z,22.35
2019-03-24T11:59:08.614Z,22.51
2019-03-24T12:00:08.613Z,22.45
2019-03-24T12:01:08.606Z,22.20
2019-03-24T12:02:08.599Z,22.24
2019-03-24T12:03:08.596Z,21.90
2019-03-24T12:04:08.587Z,21.72
2019-03-24T12:05:08.589Z,21.46
2019-03-24T12:06:14.509Z,21.27
2019-03-24T12:07:08.585Z,21.09
2019-03-24T12:08:08.577Z,21.01
2019-03-24T12:09:08.565Z,20.50
2019-03-24T12:10:08.560Z,20.02
2019-03-24T12:11:08.558Z,19.48
2019-03-24T12:12:08.552Z,19.19
2019-03-24T12:13:08.550Z,18.78
2019-03-24T12:14:08.540Z,18.81
2019-03-24T12:15:08.538Z,18.78
2019-03-24T12:16:08.559Z,18.80
2019-03-24T12:17:08.519Z,18.82
2019-03-24T12:18:08.522Z,18.85
2019-03-24T12:19:08.512Z,18.88
2019-03-24T12:20:08.510Z,18.82
2019-03-24T12:21:08.502Z,19.46
2019-03-24T12:22:08.496Z,19.74
2019-03-24T12:23:08.490Z,19.58
2019-03-24T12:24:08.485Z,19.73
2019-03-24T12:25:08.494Z,19.55
2019-03-24T12:26:08.474Z,19.39
2019-03-24T12:27:08.468Z,19.47
2019-03-24T12:28:08.456Z,19.78
2019-03-24T12:29:08.456Z,20.16
2019-03-24T12:30:08.446Z,20.55
2019-03-24T12:31:08.438Z,20.64
2019-03-24T12:32:08.434Z,20.33
2019-03-24T12:33:08.430Z,20.47
2019-03-24T12:34:08.422Z,20.39
2019-03-24T12:35:08.569Z,20.20
2019-03-24T12:36:08.411Z,20.97
2019-03-24T12:37:08.405Z,21.01
2019-03-24T12:38:08.396Z,20.79
2019-03-24T12:39:08.390Z,20.79
2019-03-24T12:40:08.386Z,20.77
2019-03-24T12:41:08.376Z,20.20
2019-03-24T12:42:08.371Z,20.74
2019-03-24T12:43:18.607Z,20.55
2019-03-24T12:44:08.363Z,20.20
2019-03-24T12:45:08.360Z,20.35
2019-03-24T12:46:08.350Z,20.38
2019-03-24T12:47:08.342Z,19.99
2019-03-24T12:48:08.371Z,19.84
2019-03-24T12:49:08.334Z,19.76
2019-03-24T12:50:09.856Z,19.39
2019-03-24T12:51:08.316Z,19.25
2019-03-24T12:52:08.312Z,18.75
2019-03-24T12:53:08.303Z,18.37
2019-03-24T12:54:08.295Z,18.12
2019-03-24T12:55:08.292Z,17.86
2019-03-24T12:56:08.284Z,17.56
2019-03-24T12:57:08.274Z,17.48
2019-03-24T12:58:08.267Z,17.46
2019-03-24T12:59:08.258Z,17.40
2019-03-24T13:00:08.253Z,17.06
2019-03-24T13:01:08.251Z,16.82
2019-03-24T13:02:08.247Z,16.66
2019-03-24T13:03:08.232Z,16.52
2019-03-24T13:04:08.221Z,16.49
2019-03-24T13:05:08.211Z,16.57
2019-03-24T13:06:08.202Z,16.63
2019-03-24T13:07:08.196Z,16.76